createdAt,value
2023-04-17T00:00:54.985Z,96036.3047
2023-04-17T00:01:56.650Z,96036.0781
2023-04-17T00:02:58.379Z,96035.6172
2023-04-17T00:04:00.117Z,96034.6953
2023-04-17T00:05:01.644Z,96034.0781
2023-04-17T00:06:03.206Z,96033.6953
2023-04-17T00:07:04.851Z,96033.4609
2023-04-17T00:08:06.527Z,96034.2344
2023-04-17T00:09:08.168Z,96033.8438
2023-04-17T00:10:09.891Z,96032.4609
2023-04-17T00:11:11.405Z,96031.3828
2023-04-17T00:12:13.068Z,96030.3047
2023-04-17T00:13:14.728Z,96030.1562
2023-04-17T00:14:16.347Z,96029.8438
2023-04-17T00:15:18.015Z,96029.6953
2023-04-17T00:16:19.662Z,96029.0000
2023-04-17T00:17:21.331Z,96029.5391
2023-04-17T00:18:22.908Z,96028.8438
2023-04-17T00:19:24.545Z,96028.4609
2023-04-17T00:20:26.247Z,96027.1562
2023-04-17T00:21:27.845Z,96026.3047
2023-04-17T00:22:29.489Z,96025.2344
2023-04-17T00:23:31.145Z,96024.5391
2023-04-17T00:24:32.760Z,96024.5391
2023-04-17T00:25:34.426Z,96023.8438
2023-04-17T00:26:36.041Z,96023.0781
2023-04-17T00:27:37.720Z,96023.0000
2023-04-17T00:28:39.326Z,96022.3047
2023-04-17T00:29:41.003Z,96021.9219
2023-04-17T00:30:42.664Z,96022.0000
2023-04-17T00:31:44.315Z,96022.3828
2023-04-17T00:32:45.960Z,96022.0781
2023-04-17T00:33:47.549Z,96022.3047
2023-04-17T00:34:49.188Z,96021.6172
2023-04-17T00:35:50.905Z,96019.7656
2023-04-17T00:36:52.470Z,96017.1562
2023-04-17T00:37:54.112Z,96015.2344
2023-04-17T00:38:55.780Z,96013.5391
2023-04-17T00:39:57.409Z,96010.8438
2023-04-17T00:40:59.091Z,96008.0000
2023-04-17T00:42:00.735Z,96006.9219
2023-04-17T00:43:02.352Z,96007.0781
2023-04-17T00:44:03.975Z,96005.9219
2023-04-17T00:45:05.651Z,96005.8438
2023-04-17T00:46:07.303Z,96006.6172
2023-04-17T00:47:08.921Z,96007.7656
2023-04-17T00:48:10.534Z,96009.0000
2023-04-17T00:49:12.313Z,96009.1562
2023-04-17T00:50:13.797Z,96007.6953
2023-04-17T00:51:15.507Z,96006.3047
2023-04-17T00:52:17.069Z,96004.6172
2023-04-17T00:53:18.747Z,96004.0781
2023-04-17T00:54:20.369Z,96003.3047
2023-04-17T00:55:22.011Z,96002.6172
2023-04-17T00:56:23.682Z,96002.3828
2023-04-17T00:57:25.327Z,96001.3047
2023-04-17T00:58:26.945Z,96000.4609
2023-04-17T00:59:28.568Z,95999.1562
2023-04-17T01:00:30.238Z,95996.2344
2023-04-17T01:01:31.959Z,95993.5391
2023-04-17T01:02:33.670Z,95992.8438
2023-04-17T01:03:35.414Z,95991.3828
2023-04-17T01:04:36.801Z,95991.0000
2023-04-17T01:05:38.493Z,95991.0781
2023-04-17T01:06:40.119Z,95989.6953
2023-04-17T01:07:41.763Z,95989.0000
2023-04-17T01:08:43.379Z,95988.0781
2023-04-17T01:09:44.987Z,95988.0000
2023-04-17T01:10:46.645Z,95988.1562
2023-04-17T01:11:48.290Z,95986.8438
2023-04-17T01:12:49.981Z,95987.0000
2023-04-17T01:13:51.665Z,95985.6172
2023-04-17T01:14:53.340Z,95984.6953
2023-04-17T01:15:54.997Z,95984.0781
2023-04-17T01:16:56.678Z,95984.6172
2023-04-17T01:17:58.311Z,95984.6953
2023-04-17T01:18:59.901Z,95984.5391
2023-04-17T01:20:01.541Z,95983.4609
2023-04-17T01:21:03.184Z,95983.4609
2023-04-17T01:22:04.856Z,95982.3047
2023-04-17T01:23:06.483Z,95982.3047
2023-04-17T01:24:08.084Z,95981.5391
2023-04-17T01:25:09.779Z,95980.2344
2023-04-17T01:26:11.381Z,95981.1562
2023-04-17T01:27:13.090Z,95980.5391
2023-04-17T01:28:14.682Z,95981.8438
2023-04-17T01:29:16.326Z,95981.1562
2023-04-17T01:30:17.951Z,95979.1562
2023-04-17T01:31:19.651Z,95979.0781
2023-04-17T01:32:21.281Z,95980.0000
2023-04-17T01:33:22.882Z,95980.5391
2023-04-17T01:34:24.527Z,95981.6172
2023-04-17T01:35:26.167Z,95981.9219
2023-04-17T01:36:27.805Z,95982.1562
2023-04-17T01:37:29.504Z,95982.7656
2023-04-17T01:38:31.061Z,95981.5391
2023-04-17T01:39:32.729Z,95981.3047
2023-04-17T01:40:34.377Z,95979.9219
2023-04-17T01:41:36.025Z,95980.6172
2023-04-17T01:42:37.696Z,95981.6953
2023-04-17T01:43:39.356Z,95983.4609
2023-04-17T01:44:40.946Z,95984.3047
2023-04-17T01:45:42.578Z,95984.7656
2023-04-17T01:46:44.278Z,95985.7656
2023-04-17T01:47:46.462Z,95986.8438
2023-04-17T01:48:47.550Z,95985.7656
2023-04-17T01:49:49.193Z,95984.7656
2023-04-17T01:50:50.844Z,95982.7656
2023-04-17T01:51:52.517Z,95982.0781
2023-04-17T01:52:54.171Z,95982.2344
2023-04-17T01:53:55.752Z,95981.6953
2023-04-17T01:54:57.386Z,95980.3828
2023-04-17T01:55:59.020Z,95978.2344
2023-04-17T01:57:00.652Z,95977.6953
2023-04-17T01:58:02.429Z,95977.8438
2023-04-17T01:59:03.973Z,95977.4609
2023-04-17T02:00:05.630Z,95977.3047
2023-04-17T02:01:07.233Z,95976.6953
2023-04-17T02:02:09.067Z,95975.4609
2023-04-17T02:03:10.629Z,95973.4609
2023-04-17T02:04:12.288Z,95972.9219
2023-04-17T02:05:13.786Z,95971.3828
2023-04-17T02:06:15.440Z,95971.1562
2023-04-17T02:07:17.068Z,95969.6953
2023-04-17T02:08:18.783Z,95968.7656
2023-04-17T02:09:20.351Z,95968.3047
2023-04-17T02:10:21.983Z,95969.1562
2023-04-17T02:11:23.650Z,95969.3828
2023-04-17T02:12:25.306Z,95968.5391
2023-04-17T02:13:26.995Z,95967.6953
2023-04-17T02:14:28.550Z,95967.1562
2023-04-17T02:15:30.224Z,95967.6953
2023-04-17T02:16:31.908Z,95967.9219
2023-04-17T02:17:33.520Z,95967.0781
2023-04-17T02:18:35.231Z,95966.5391
2023-04-17T02:19:36.760Z,95965.6953
2023-04-17T02:20:38.393Z,95965.7656
2023-04-17T02:21:40.037Z,95965.2344
2023-04-17T02:22:41.687Z,95965.1562
2023-04-17T02:23:43.374Z,95965.3828
2023-04-17T02:24:44.953Z,95964.8438
2023-04-17T02:25:46.583Z,95965.0781
2023-04-17T02:26:48.246Z,95964.9219
2023-04-17T02:27:49.872Z,95963.8438
2023-04-17T02:28:51.556Z,95964.3828
2023-04-17T02:29:53.149Z,95964.0781
2023-04-17T02:30:54.972Z,95963.9219
2023-04-17T02:31:56.566Z,95964.3047
2023-04-17T02:32:58.150Z,95964.3828
2023-04-17T02:33:59.759Z,95964.2344
2023-04-17T02:35:01.343Z,95963.6953
2023-04-17T02:36:02.995Z,95963.9219
2023-04-17T02:37:04.652Z,95963.3828
2023-04-17T02:38:06.278Z,95963.2344
2023-04-17T02:39:07.946Z,95963.6953
2023-04-17T02:40:09.561Z,95963.4609
2023-04-17T02:41:11.171Z,95963.0000
2023-04-17T02:42:12.861Z,95962.1562
2023-04-17T02:43:14.472Z,95962.3047
2023-04-17T02:44:16.166Z,95962.1562
2023-04-17T02:45:17.779Z,95962.0000
2023-04-17T02:46:19.440Z,95961.8438
2023-04-17T02:47:21.204Z,95961.7656
2023-04-17T02:48:22.580Z,95961.6953
2023-04-17T02:49:24.270Z,95961.3828
2023-04-17T02:50:25.944Z,95960.6953
2023-04-17T02:51:27.580Z,95958.9219
2023-04-17T02:52:29.221Z,95959.1562
2023-04-17T02:53:30.859Z,95958.6172
2023-04-17T02:54:32.584Z,95958.4609
2023-04-17T02:55:34.269Z,95958.1562
2023-04-17T02:56:35.721Z,95957.2344
2023-04-17T02:57:37.403Z,95957.6953
2023-04-17T02:58:38.999Z,95956.9219
2023-04-17T02:59:40.837Z,95956.6953
2023-04-17T03:00:42.335Z,95956.8438
2023-04-17T03:01:43.968Z,95957.7656
2023-04-17T03:02:45.709Z,95957.9219
2023-04-17T03:03:47.272Z,95956.5391
2023-04-17T03:04:48.887Z,95956.5391
2023-04-17T03:05:50.485Z,95956.8438
2023-04-17T03:06:52.375Z,95956.5391
2023-04-17T03:07:53.950Z,95956.4609
2023-04-17T03:08:55.460Z,95955.9219
2023-04-17T03:09:57.113Z,95955.9219
2023-04-17T03:10:58.694Z,95955.2344
2023-04-17T03:12:00.336Z,95954.3828
2023-04-17T03:13:02.000Z,95953.6953
2023-04-17T03:14:03.634Z,95953.5391
2023-04-17T03:15:06.417Z,95952.9219
2023-04-17T03:16:06.994Z,95953.3828
2023-04-17T03:17:08.589Z,95953.1562
2023-04-17T03:18:10.225Z,95953.8438
2023-04-17T03:19:12.091Z,95953.5391
2023-04-17T03:20:13.519Z,95952.7656
2023-04-17T03:21:15.132Z,95952.4609
2023-04-17T03:22:16.797Z,95952.6953
2023-04-17T03:23:18.426Z,95952.0000
2023-04-17T03:24:20.069Z,95952.0781
2023-04-17T03:25:21.732Z,95950.9219
2023-04-17T03:26:23.343Z,95950.0000
2023-04-17T03:27:25.005Z,95949.5391
2023-04-17T03:28:26.646Z,95949.9219
2023-04-17T03:29:28.285Z,95950.9219
2023-04-17T03:30:29.986Z,95950.2344
2023-04-17T03:31:32.223Z,95953.1562
2023-04-17T03:32:33.346Z,95955.5391
2023-04-17T03:33:34.946Z,95957.6953
2023-04-17T03:34:36.562Z,95957.4609
2023-04-17T03:35:38.247Z,95958.6953
2023-04-17T03:36:39.825Z,95959.5391
2023-04-17T03:37:41.469Z,95959.3047
2023-04-17T03:38:43.125Z,95960.2344
2023-04-17T03:39:44.779Z,95960.9219
2023-04-17T03:40:46.489Z,95961.6172
2023-04-17T03:41:48.048Z,95962.2344
2023-04-17T03:42:49.706Z,95961.5391
2023-04-17T03:43:51.361Z,95961.0000
2023-04-17T03:44:53.016Z,95960.9219
2023-04-17T03:45:54.764Z,95961.2344
2023-04-17T03:46:56.338Z,95961.8438
2023-04-17T03:47:57.941Z,95962.3047
2023-04-17T03:48:59.967Z,95963.4609
2023-04-17T03:50:01.234Z,95964.6953
2023-04-17T03:51:02.969Z,95965.9219
2023-04-17T03:52:04.501Z,95966.9219
2023-04-17T03:53:06.151Z,95968.4609
2023-04-17T03:54:07.799Z,95969.1562
2023-04-17T03:55:09.498Z,95970.0000
2023-04-17T03:56:11.174Z,95970.7656
2023-04-17T03:57:12.731Z,95971.1562
2023-04-17T03:58:14.391Z,95971.8438
2023-04-17T03:59:15.993Z,95970.6953
2023-04-17T04:00:17.583Z,95970.5391
2023-04-17T04:01:19.297Z,95970.3828
2023-04-17T04:02:20.939Z,95970.1562
2023-04-17T04:03:22.623Z,95970.2344
2023-04-17T04:04:24.341Z,95970.0000
2023-04-17T04:05:25.828Z,95969.8438
2023-04-17T04:06:27.401Z,95968.9219
2023-04-17T04:07:29.180Z,95968.4609
2023-04-17T04:08:30.679Z,95967.7656
2023-04-17T04:09:32.342Z,95967.1562
2023-04-17T04:10:33.962Z,95967.1562
2023-04-17T04:11:35.617Z,95967.8438
2023-04-17T04:12:37.281Z,95967.3047
2023-04-17T04:13:38.877Z,95967.0000
2023-04-17T04:14:41.776Z,95966.5391
2023-04-17T04:15:42.193Z,95966.3047
2023-04-17T04:16:43.814Z,95967.7656
2023-04-17T04:17:45.469Z,95967.3828
2023-04-17T04:18:47.081Z,95967.0781
2023-04-17T04:19:48.731Z,95968.0000
2023-04-17T04:20:50.376Z,95968.7656
2023-04-17T04:21:52.034Z,95968.0781
2023-04-17T04:22:53.743Z,95967.4609
2023-04-17T04:23:55.312Z,95966.9219
2023-04-17T04:24:56.960Z,95967.7656
2023-04-17T04:25:58.614Z,95967.7656
2023-04-17T04:27:00.278Z,95967.3047
2023-04-17T04:28:01.881Z,95967.7656
2023-04-17T04:29:03.479Z,95968.8438
2023-04-17T04:30:05.258Z,95969.0000
2023-04-17T04:31:06.870Z,95969.3828
2023-04-17T04:32:08.410Z,95969.8438
2023-04-17T04:33:10.076Z,95970.1562
2023-04-17T04:34:11.720Z,95970.7656
2023-04-17T04:35:13.438Z,95969.9219
2023-04-17T04:36:15.141Z,95969.2344
2023-04-17T04:37:16.719Z,95969.2344
2023-04-17T04:38:18.359Z,95970.1562
2023-04-17T04:39:20.039Z,95969.5391
2023-04-17T04:40:21.545Z,95970.0781
2023-04-17T04:41:23.219Z,95970.0781
2023-04-17T04:42:24.840Z,95970.5391
2023-04-17T04:43:26.491Z,95971.2344
2023-04-17T04:44:28.111Z,95972.3047
2023-04-17T04:45:29.767Z,95972.0000
2023-04-17T04:46:31.516Z,95972.3047
2023-04-17T04:47:33.078Z,95972.3828
2023-04-17T04:48:34.690Z,95971.6172
2023-04-17T04:49:36.359Z,95970.9219
2023-04-17T04:50:37.993Z,95970.4609
2023-04-17T04:51:39.671Z,95970.2344
2023-04-17T04:52:41.311Z,95970.3828
2023-04-17T04:53:42.939Z,95971.0000
2023-04-17T04:54:44.574Z,95972.0000
2023-04-17T04:55:46.211Z,95972.9219
2023-04-17T04:56:47.916Z,95974.3828
2023-04-17T04:57:49.510Z,95975.6172
2023-04-17T04:58:51.156Z,95976.0781
2023-04-17T04:59:52.815Z,95976.6172
2023-04-17T05:00:54.584Z,95977.5391
2023-04-17T05:01:56.183Z,95978.3828
2023-04-17T05:02:57.859Z,95978.3828
2023-04-17T05:03:59.466Z,95979.8438
2023-04-17T05:05:01.129Z,95980.0781
2023-04-17T05:06:02.642Z,95981.0781
2023-04-17T05:07:04.385Z,95981.1562
2023-04-17T05:08:05.942Z,95982.4609
2023-04-17T05:09:07.601Z,95984.8438
2023-04-17T05:10:09.247Z,95984.9219
2023-04-17T05:11:10.962Z,95985.3828
2023-04-17T05:12:12.541Z,95985.7656
2023-04-17T05:13:14.152Z,95986.4609
2023-04-17T05:14:15.780Z,95986.3047
2023-04-17T05:15:17.423Z,95986.8438
2023-04-17T05:16:19.167Z,95988.4609
2023-04-17T05:17:20.955Z,95990.1562
2023-04-17T05:18:22.505Z,95990.3828
2023-04-17T05:19:24.140Z,95991.3047
2023-04-17T05:20:25.762Z,95991.6172
2023-04-17T05:21:28.744Z,95993.5391
2023-04-17T05:22:29.104Z,95994.4609
2023-04-17T05:23:30.684Z,95994.1562
2023-04-17T05:24:32.366Z,95992.6953
2023-04-17T05:25:33.962Z,95992.6172
2023-04-17T05:26:35.634Z,95992.5391
2023-04-17T05:27:37.384Z,95992.5391
2023-04-17T05:28:38.913Z,95993.8438
2023-04-17T05:29:40.540Z,95994.9219
2023-04-17T05:30:42.192Z,95996.4609
2023-04-17T05:31:43.832Z,95997.3047
2023-04-17T05:32:45.492Z,95998.9219
2023-04-17T05:33:47.139Z,95999.8438
2023-04-17T05:34:48.706Z,95997.5391
2023-04-17T05:35:50.340Z,95995.3828
2023-04-17T05:36:51.988Z,95996.8438
2023-04-17T05:37:53.657Z,95999.2344
2023-04-17T05:38:55.263Z,96000.7656
2023-04-17T05:39:56.900Z,96000.8438
2023-04-17T05:40:58.573Z,96000.3047
2023-04-17T05:42:00.180Z,96000.2344
2023-04-17T05:43:01.856Z,96000.2344
2023-04-17T05:44:03.509Z,96000.3828
2023-04-17T05:45:05.091Z,96001.0781
2023-04-17T05:46:06.786Z,96002.3828
2023-04-17T05:47:08.385Z,96004.2344
2023-04-17T05:48:10.087Z,96005.2344
2023-04-17T05:49:11.918Z,96005.6953
2023-04-17T05:50:13.299Z,96006.2344
2023-04-17T05:51:14.941Z,96005.9219
2023-04-17T05:52:16.495Z,96007.0000
2023-04-17T05:53:18.181Z,96007.2344
2023-04-17T05:54:19.925Z,96008.0781
2023-04-17T05:55:21.500Z,96008.8438
2023-04-17T05:56:23.132Z,96009.6953
2023-04-17T05:57:24.841Z,96010.1562
2023-04-17T05:58:26.438Z,96009.2344
2023-04-17T05:59:28.069Z,96011.1562
2023-04-17T06:00:29.707Z,96011.2344
2023-04-17T06:01:31.418Z,96010.6172
2023-04-17T06:02:33.087Z,96011.7656
2023-04-17T06:03:34.815Z,96013.2344
2023-04-17T06:04:36.449Z,96013.9219
2023-04-17T06:05:38.033Z,96014.6953
2023-04-17T06:06:39.569Z,96014.8438
2023-04-17T06:07:41.165Z,96015.0000
2023-04-17T06:08:42.822Z,96014.4609
2023-04-17T06:09:44.404Z,96014.4609
2023-04-17T06:10:46.140Z,96013.7656
2023-04-17T06:11:47.712Z,96013.7656
2023-04-17T06:12:49.323Z,96014.5391
2023-04-17T06:13:51.064Z,96015.0781
2023-04-17T06:14:52.629Z,96014.6953
2023-04-17T06:15:54.257Z,96015.3828
2023-04-17T06:16:55.926Z,96014.6172
2023-04-17T06:17:57.592Z,96015.3047
2023-04-17T06:18:59.261Z,96015.6953
2023-04-17T06:20:00.809Z,96016.4609
2023-04-17T06:21:02.529Z,96017.6172
2023-04-17T06:22:04.123Z,96018.5391
2023-04-17T06:23:05.730Z,96019.3047
2023-04-17T06:24:07.327Z,96019.7656
2023-04-17T06:25:08.932Z,96019.8438
2023-04-17T06:26:10.582Z,96020.0000
2023-04-17T06:27:12.201Z,96020.5391
2023-04-17T06:28:13.901Z,96020.1562
2023-04-17T06:29:15.557Z,96020.7656
2023-04-17T06:30:17.107Z,96021.6172
2023-04-17T06:31:18.789Z,96021.0781
2023-04-17T06:32:20.459Z,96020.8438
2023-04-17T06:33:23.112Z,96019.6172
2023-04-17T06:34:23.746Z,96019.0000
2023-04-17T06:35:25.355Z,96019.1562
2023-04-17T06:36:27.011Z,96019.4609
2023-04-17T06:37:28.627Z,96020.0781
2023-04-17T06:38:30.441Z,96020.9219
2023-04-17T06:39:31.978Z,96020.3047
2023-04-17T06:40:33.527Z,96020.6953
2023-04-17T06:41:35.187Z,96020.7656
2023-04-17T06:42:36.843Z,96020.6172
2023-04-17T06:43:38.618Z,96020.3047
2023-04-17T06:44:40.143Z,96020.0781
2023-04-17T06:45:41.762Z,96019.7656
2023-04-17T06:46:43.394Z,96019.6172
2023-04-17T06:47:45.073Z,96019.2344
2023-04-17T06:48:46.696Z,96018.6953
2023-04-17T06:49:48.335Z,96020.2344
2023-04-17T06:50:49.927Z,96021.8438
2023-04-17T06:51:51.579Z,96022.1562
2023-04-17T06:52:53.206Z,96021.2344
2023-04-17T06:53:54.843Z,96021.5391
2023-04-17T06:54:56.540Z,96021.4609
2023-04-17T06:55:58.123Z,96021.6953
2023-04-17T06:56:59.739Z,96022.3047
2023-04-17T06:58:01.409Z,96023.2344
2023-04-17T06:59:03.247Z,96025.0000
2023-04-17T07:00:04.708Z,96026.8438
2023-04-17T07:01:06.333Z,96028.3828
2023-04-17T07:02:07.991Z,96029.3047
2023-04-17T07:03:09.688Z,96030.5391
2023-04-17T07:04:11.300Z,96031.2344
2023-04-17T07:05:12.972Z,96031.6172
2023-04-17T07:06:15.415Z,96032.8438
2023-04-17T07:07:16.274Z,96033.3828
2023-04-17T07:08:17.887Z,96033.7656
2023-04-17T07:09:19.514Z,96033.2344
2023-04-17T07:10:21.256Z,96033.6953
2023-04-17T07:11:22.825Z,96034.2344
2023-04-17T07:12:24.437Z,96034.2344
2023-04-17T07:13:26.117Z,96034.1562
2023-04-17T07:14:27.776Z,96035.1562
2023-04-17T07:15:29.468Z,96035.3828
2023-04-17T07:16:31.108Z,96036.2344
2023-04-17T07:17:32.689Z,96037.0781
2023-04-17T07:18:34.328Z,96036.9219
2023-04-17T07:19:35.920Z,96038.6172
2023-04-17T07:20:37.586Z,96038.3828
2023-04-17T07:21:39.249Z,96040.8438
2023-04-17T07:22:40.862Z,96041.0781
2023-04-17T07:23:42.525Z,96041.8438
2023-04-17T07:24:44.128Z,96042.9219
2023-04-17T07:25:45.855Z,96042.8438
2023-04-17T07:26:47.463Z,96042.3828
2023-04-17T07:27:49.081Z,96043.3828
2023-04-17T07:28:50.756Z,96043.0000
2023-04-17T07:29:52.395Z,96043.2344
2023-04-17T07:30:54.053Z,96043.6953
2023-04-17T07:31:55.693Z,96043.4609
2023-04-17T07:32:57.333Z,96042.3828
2023-04-17T07:33:58.932Z,96042.2344
2023-04-17T07:35:00.516Z,96042.3828
2023-04-17T07:36:02.336Z,96043.0781
2023-04-17T07:37:03.847Z,96042.9219
2023-04-17T07:38:05.473Z,96042.7656
2023-04-17T07:39:07.084Z,96042.2344
2023-04-17T07:40:08.731Z,96042.6953
2023-04-17T07:41:10.436Z,96043.0000
2023-04-17T07:42:12.021Z,96043.9219
2023-04-17T07:43:13.677Z,96044.7656
2023-04-17T07:44:15.285Z,96044.5391
2023-04-17T07:45:16.965Z,96046.0781
2023-04-17T07:46:18.628Z,96045.3047
2023-04-17T07:47:20.360Z,96045.3828
2023-04-17T07:48:21.877Z,96046.5391
2023-04-17T07:49:23.561Z,96046.1562
2023-04-17T07:50:25.222Z,96046.0000
2023-04-17T07:51:26.921Z,96047.1562
2023-04-17T07:52:28.517Z,96048.7656
2023-04-17T07:53:30.140Z,96048.4609
2023-04-17T07:54:31.790Z,96048.8438
2023-04-17T07:55:33.536Z,96048.4609
2023-04-17T07:56:35.041Z,96048.6953
2023-04-17T07:57:36.655Z,96048.3047
2023-04-17T07:58:38.306Z,96049.6172
2023-04-17T07:59:39.946Z,96049.8438
2023-04-17T08:00:41.550Z,96050.7656
2023-04-17T08:01:43.276Z,96050.4609
2023-04-17T08:02:45.087Z,96050.2344
2023-04-17T08:03:46.737Z,96049.3047
2023-04-17T08:04:48.239Z,96049.3828
2023-04-17T08:05:49.901Z,96048.4609
2023-04-17T08:06:51.521Z,96048.1562
2023-04-17T08:07:53.001Z,96048.0000
2023-04-17T08:08:54.631Z,96048.3047
2023-04-17T08:09:56.266Z,96049.1562
2023-04-17T08:10:57.941Z,96050.0000
2023-04-17T08:11:59.599Z,96048.0781
2023-04-17T08:13:01.245Z,96046.4609
2023-04-17T08:14:02.833Z,96047.9219
2023-04-17T08:15:04.538Z,96048.4609
2023-04-17T08:16:06.167Z,96049.3047
2023-04-17T08:17:07.926Z,96051.3828
2023-04-17T08:18:09.526Z,96051.0000
2023-04-17T08:19:11.289Z,96051.3828
2023-04-17T08:20:12.736Z,96051.7656
2023-04-17T08:21:14.357Z,96051.3047
2023-04-17T08:22:16.028Z,96051.7656
2023-04-17T08:23:17.618Z,96053.3047
2023-04-17T08:24:20.000Z,96054.6953
2023-04-17T08:25:20.908Z,96053.9219
2023-04-17T08:26:22.549Z,96053.0000
2023-04-17T08:27:24.244Z,96053.3047
2023-04-17T08:28:26.044Z,96055.0000
2023-04-17T08:29:27.489Z,96055.9219
2023-04-17T08:30:29.115Z,96056.6953
2023-04-17T08:31:30.779Z,96056.5391
2023-04-17T08:32:32.429Z,96057.7656
2023-04-17T08:33:34.022Z,96057.6953
2023-04-17T08:34:35.716Z,96058.3828
2023-04-17T08:35:37.327Z,96056.6953
2023-04-17T08:36:38.923Z,96057.8438
2023-04-17T08:37:40.630Z,96058.0781
2023-04-17T08:38:42.234Z,96058.1562
2023-04-17T08:39:43.912Z,96058.7656
2023-04-17T08:40:45.498Z,96057.2344
2023-04-17T08:41:47.521Z,96056.6953
2023-04-17T08:42:48.824Z,96057.1562
2023-04-17T08:43:50.447Z,96057.6172
2023-04-17T08:44:52.077Z,96056.9219
2023-04-17T08:45:54.065Z,96057.1562
2023-04-17T08:46:55.367Z,96058.4609
2023-04-17T08:47:57.038Z,96057.6953
2023-04-17T08:48:58.592Z,96058.1562
2023-04-17T08:50:00.243Z,96058.6172
2023-04-17T08:51:02.006Z,96058.4609
2023-04-17T08:52:03.603Z,96058.6172
2023-04-17T08:53:05.305Z,96058.3828
2023-04-17T08:54:06.976Z,96058.0781
2023-04-17T08:55:08.551Z,96057.7656
2023-04-17T08:56:10.157Z,96057.4609
2023-04-17T08:57:11.796Z,96056.8438
2023-04-17T08:58:13.431Z,96055.8438
2023-04-17T08:59:15.096Z,96057.0000
2023-04-17T09:00:16.749Z,96057.4609
2023-04-17T09:01:18.432Z,96056.6953
2023-04-17T09:02:20.135Z,96058.4609
2023-04-17T09:03:21.836Z,96058.9219
2023-04-17T09:04:23.465Z,96057.1562
2023-04-17T09:05:24.930Z,96056.2344
2023-04-17T09:06:26.563Z,96056.0781
2023-04-17T09:07:28.127Z,96054.5391
2023-04-17T09:08:29.783Z,96052.3828
2023-04-17T09:09:31.391Z,96051.9219
2023-04-17T09:10:33.349Z,96051.3047
2023-04-17T09:11:34.688Z,96050.3047
2023-04-17T09:12:36.334Z,96052.0000
2023-04-17T09:13:37.996Z,96053.0781
2023-04-17T09:14:39.584Z,96058.6953
2023-04-17T09:15:41.343Z,96060.7656
2023-04-17T09:16:42.853Z,96056.3047
2023-04-17T09:17:44.625Z,96055.2344
2023-04-17T09:18:46.170Z,96056.1562
2023-04-17T09:19:47.785Z,96055.3047
2023-04-17T09:20:49.481Z,96054.2344
2023-04-17T09:21:51.122Z,96054.6953
2023-04-17T09:22:52.777Z,96056.2344
2023-04-17T09:23:54.446Z,96054.9219
2023-04-17T09:24:57.614Z,96053.0000
2023-04-17T09:25:57.716Z,96052.8438
2023-04-17T09:26:59.357Z,96056.0000
2023-04-17T09:28:00.955Z,96055.0000
2023-04-17T09:29:02.633Z,96053.2344
2023-04-17T09:30:04.264Z,96050.8438
2023-04-17T09:31:05.951Z,96052.4609
2023-04-17T09:32:07.572Z,96052.6172
2023-04-17T09:33:09.181Z,96051.6172
2023-04-17T09:34:10.882Z,96052.7656
2023-04-17T09:35:12.471Z,96056.4609
2023-04-17T09:36:14.100Z,96053.7656
2023-04-17T09:37:15.747Z,96052.7656
2023-04-17T09:38:17.559Z,96053.3047
2023-04-17T09:39:19.024Z,96052.0000
2023-04-17T09:40:20.651Z,96050.7656
2023-04-17T09:41:22.284Z,96053.2344
2023-04-17T09:42:23.914Z,96053.0781
2023-04-17T09:43:25.547Z,96053.9219
2023-04-17T09:44:27.210Z,96052.0000
2023-04-17T09:45:28.814Z,96049.6953
2023-04-17T09:46:30.561Z,96050.6172
2023-04-17T09:47:32.147Z,96049.6172
2023-04-17T09:48:33.719Z,96049.6172
2023-04-17T09:49:35.418Z,96050.4609
2023-04-17T09:50:38.625Z,96052.1562
2023-04-17T09:51:38.613Z,96051.4609
2023-04-17T09:52:40.270Z,96051.0781
2023-04-17T09:53:41.951Z,96047.4609
2023-04-17T09:54:43.595Z,96048.6172
2023-04-17T09:55:45.215Z,96047.1562
2023-04-17T09:56:47.304Z,96045.2344
2023-04-17T09:57:48.465Z,96041.3828
2023-04-17T09:58:50.081Z,96040.3828
2023-04-17T09:59:51.755Z,96040.6172
2023-04-17T10:00:53.446Z,96039.7656
2023-04-17T10:01:55.346Z,96039.8438
2023-04-17T10:02:56.885Z,96042.4609
2023-04-17T10:03:58.377Z,96041.6953
2023-04-17T10:04:59.919Z,96036.6953
2023-04-17T10:06:01.554Z,96033.5391
2023-04-17T10:07:03.162Z,96032.4609
2023-04-17T10:08:04.823Z,96033.0000
2023-04-17T10:09:06.425Z,96031.8438
2023-04-17T10:10:08.124Z,96031.6953
2023-04-17T10:11:09.727Z,96034.6172
2023-04-17T10:12:11.360Z,96035.1562
2023-04-17T10:13:12.984Z,96034.5391
2023-04-17T10:14:14.866Z,96031.5391
2023-04-17T10:15:16.292Z,96025.3828
2023-04-17T10:16:17.933Z,96028.0781
2023-04-17T10:17:19.551Z,96023.6172
2023-04-17T10:18:21.167Z,96028.9219
2023-04-17T10:19:23.174Z,96022.3828
2023-04-17T10:20:24.493Z,96022.4609
2023-04-17T10:21:26.108Z,96022.2344
2023-04-17T10:22:27.731Z,96018.3047
2023-04-17T10:23:29.375Z,96025.4609
2023-04-17T10:24:31.051Z,96026.3047
2023-04-17T10:25:32.693Z,96020.4609
2023-04-17T10:26:34.291Z,96022.7656
2023-04-17T10:27:36.981Z,96020.8438
2023-04-17T10:28:37.677Z,96020.6172
2023-04-17T10:29:39.322Z,96013.2344
2023-04-17T10:30:43.318Z,96020.8438
2023-04-17T10:31:42.649Z,96009.6172
2023-04-17T10:32:44.351Z,96011.7656
2023-04-17T10:33:45.955Z,96008.7656
2023-04-17T10:34:47.564Z,96004.5391
2023-04-17T10:35:49.279Z,96002.5391
2023-04-17T10:36:50.825Z,96007.3047
2023-04-17T10:37:52.462Z,96003.0000
2023-04-17T10:38:54.076Z,96005.1562
2023-04-17T10:39:55.724Z,96011.2344
2023-04-17T10:40:58.894Z,96007.6172
2023-04-17T10:41:58.990Z,96002.1562
2023-04-17T10:43:00.691Z,95999.2344
2023-04-17T10:44:02.276Z,95999.0000
2023-04-17T10:45:03.897Z,95999.0000
2023-04-17T10:46:05.613Z,95994.2344
2023-04-17T10:47:07.198Z,95998.1562
2023-04-17T10:48:08.910Z,96001.6953
2023-04-17T10:49:10.851Z,96002.0781
2023-04-17T10:50:12.196Z,95992.4609
2023-04-17T10:51:13.790Z,95995.2344
2023-04-17T10:52:15.367Z,95994.9219
2023-04-17T10:53:17.023Z,95996.2344
2023-04-17T10:54:18.752Z,95995.6172
2023-04-17T10:55:20.315Z,95995.2344
2023-04-17T10:56:21.972Z,95997.5391
2023-04-17T10:57:23.552Z,95998.3047
2023-04-17T10:58:31.453Z,95995.5391
2023-04-17T10:59:26.852Z,95998.9219
2023-04-17T11:00:28.487Z,95992.2344
2023-04-17T11:01:30.247Z,95995.7656
2023-04-17T11:02:31.908Z,95995.3047
2023-04-17T11:03:33.505Z,95995.6172
2023-04-17T11:04:35.050Z,95994.2344
2023-04-17T11:05:36.597Z,95993.1562
2023-04-17T11:06:38.254Z,95989.5391
2023-04-17T11:07:39.894Z,95988.3828
2023-04-17T11:08:41.511Z,95990.1562
2023-04-17T11:09:43.111Z,95991.8438
2023-04-17T11:10:44.792Z,95990.8438
2023-04-17T11:11:46.494Z,95988.8438
2023-04-17T11:12:48.095Z,95992.0781
2023-04-17T11:13:49.715Z,95992.6172
2023-04-17T11:14:51.346Z,95991.3047
2023-04-17T11:15:53.002Z,95987.2344
2023-04-17T11:16:54.655Z,95986.3828
2023-04-17T11:17:56.299Z,95988.8438
2023-04-17T11:18:57.911Z,95990.7656
2023-04-17T11:19:59.566Z,95984.7656
2023-04-17T11:21:01.199Z,95991.0781
2023-04-17T11:22:02.960Z,95985.7656
2023-04-17T11:23:04.501Z,95983.0781
2023-04-17T11:24:06.115Z,95984.0781